createdAt,value
2018-02-21T00:00:37.226Z,0.00
2018-02-21T00:01:37.187Z,0.00
2018-02-21T00:02:37.157Z,0.00
2018-02-21T00:03:37.120Z,0.00
2018-02-21T00:04:37.115Z,0.00
2018-02-21T00:05:37.057Z,0.00
2018-02-21T00:06:37.022Z,0.00
2018-02-21T00:07:36.986Z,0.00
2018-02-21T00:08:36.955Z,0.00
2018-02-21T00:09:36.949Z,0.00
2018-02-21T00:10:36.895Z,0.00
2018-02-21T00:11:36.862Z,0.00
2018-02-21T00:12:36.820Z,0.00
2018-02-21T00:13:36.788Z,0.00
2018-02-21T00:14:36.790Z,0.00
2018-02-21T00:15:36.723Z,0.00
2018-02-21T00:16:36.710Z,0.00
2018-02-21T00:17:36.655Z,0.00
2018-02-21T00:18:36.627Z,0.00
2018-02-21T00:19:36.622Z,0.00
2018-02-21T00:20:36.554Z,0.00
2018-02-21T00:21:36.521Z,0.00
2018-02-21T00:22:36.507Z,0.00
2018-02-21T00:23:36.457Z,0.00
2018-02-21T00:24:36.445Z,0.00
2018-02-21T00:25:36.387Z,0.00
2018-02-21T00:26:36.355Z,0.00
2018-02-21T00:27:36.320Z,0.00
2018-02-21T00:28:36.291Z,0.00
2018-02-21T00:29:36.281Z,0.00
2018-02-21T00:30:36.222Z,0.00
2018-02-21T00:31:36.186Z,0.00
2018-02-21T00:32:36.158Z,0.00
2018-02-21T00:33:36.120Z,0.00
2018-02-21T00:34:36.113Z,0.00
2018-02-21T00:35:36.056Z,0.00
2018-02-21T00:36:36.024Z,0.00
2018-02-21T00:37:35.988Z,0.00
2018-02-21T00:38:35.966Z,0.00
2018-02-21T00:39:35.955Z,0.00
2018-02-21T00:40:35.888Z,0.00
2018-02-21T00:41:35.863Z,0.00
2018-02-21T00:42:35.824Z,0.00
2018-02-21T00:43:35.791Z,0.00
2018-02-21T00:44:35.784Z,0.00
2018-02-21T00:45:35.728Z,0.00
2018-02-21T00:46:35.699Z,0.00
2018-02-21T00:47:35.658Z,0.00
2018-02-21T00:48:35.627Z,0.00
2018-02-21T00:49:35.621Z,0.00
2018-02-21T00:50:35.555Z,0.00
2018-02-21T00:51:35.566Z,0.00
2018-02-21T00:52:35.539Z,0.00
2018-02-21T00:53:35.456Z,0.00
2018-02-21T00:54:35.422Z,0.00
2018-02-21T00:55:35.989Z,0.00
2018-02-21T00:56:35.355Z,0.00
2018-02-21T00:57:35.371Z,0.00
2018-02-21T00:58:35.289Z,0.00
2018-02-21T00:59:35.280Z,0.00
2018-02-21T01:00:35.230Z,0.00
2018-02-21T01:01:35.187Z,0.00
2018-02-21T01:02:35.158Z,0.00
2018-02-21T01:03:35.152Z,0.00
2018-02-21T01:04:35.088Z,0.00
2018-02-21T01:05:35.059Z,0.00
2018-02-21T01:06:35.024Z,0.00
2018-02-21T01:07:35.039Z,0.00
2018-02-21T01:08:34.993Z,0.00
2018-02-21T01:09:34.933Z,0.00
2018-02-21T01:10:34.888Z,0.00
2018-02-21T01:11:34.856Z,0.00
2018-02-21T01:12:34.819Z,0.00
2018-02-21T01:13:34.789Z,0.00
2018-02-21T01:14:34.818Z,0.00
2018-02-21T01:15:34.719Z,0.00
2018-02-21T01:16:34.686Z,0.00
2018-02-21T01:17:34.659Z,0.00
2018-02-21T01:18:34.621Z,0.00
2018-02-21T01:19:34.590Z,0.00
2018-02-21T01:20:34.596Z,0.00
2018-02-21T01:21:34.521Z,0.00
2018-02-21T01:22:34.488Z,0.00
2018-02-21T01:23:34.458Z,0.00
2018-02-21T01:24:34.417Z,0.00
2018-02-21T01:25:34.424Z,0.00
2018-02-21T01:26:34.355Z,0.00
2018-02-21T01:27:34.318Z,0.00
2018-02-21T01:28:34.288Z,0.00
2018-02-21T01:29:34.253Z,0.00
2018-02-21T01:30:34.225Z,0.00
2018-02-21T01:31:34.227Z,0.00
2018-02-21T01:32:34.155Z,0.00
2018-02-21T01:33:34.125Z,0.00
2018-02-21T01:34:34.087Z,0.00
2018-02-21T01:35:34.050Z,0.00
2018-02-21T01:36:34.017Z,0.00
2018-02-21T01:37:34.036Z,0.00
2018-02-21T01:38:33.952Z,0.00
2018-02-21T01:39:33.918Z,0.00
2018-02-21T01:40:33.889Z,0.00
2018-02-21T01:41:34.494Z,0.00
2018-02-21T01:42:33.822Z,0.00
2018-02-21T01:43:33.848Z,0.00
2018-02-21T01:44:33.750Z,0.00
2018-02-21T01:45:33.732Z,0.00
2018-02-21T01:46:34.499Z,0.00
2018-02-21T01:47:33.652Z,0.00
2018-02-21T01:48:33.652Z,0.00
2018-02-21T01:49:33.623Z,0.00
2018-02-21T01:50:33.556Z,0.00
2018-02-21T01:51:33.517Z,0.00
2018-02-21T01:52:33.489Z,0.00
2018-02-21T01:53:33.448Z,0.00
2018-02-21T01:54:33.414Z,0.00
2018-02-21T01:55:33.415Z,0.00
2018-02-21T01:56:33.355Z,0.00
2018-02-21T01:57:33.313Z,0.00
2018-02-21T01:58:33.286Z,0.00
2018-02-21T01:59:33.286Z,0.00
2018-02-21T02:00:33.216Z,0.00
2018-02-21T02:01:33.184Z,0.00
2018-02-21T02:02:33.154Z,0.00
2018-02-21T02:03:33.116Z,0.00
2018-02-21T02:04:33.088Z,0.00
2018-02-21T02:05:33.073Z,0.00
2018-02-21T02:06:33.016Z,0.00
2018-02-21T02:07:32.981Z,0.00
2018-02-21T02:08:32.944Z,0.00
2018-02-21T02:09:32.952Z,0.00
2018-02-21T02:10:32.879Z,0.00
2018-02-21T02:11:32.849Z,0.00
2018-02-21T02:12:32.833Z,0.00
2018-02-21T02:13:32.777Z,0.00
2018-02-21T02:14:32.748Z,0.00
2018-02-21T02:15:32.737Z,0.00
2018-02-21T02:16:32.682Z,0.00
2018-02-21T02:17:32.645Z,0.00
2018-02-21T02:18:32.610Z,0.00
2018-02-21T02:19:32.623Z,0.00
2018-02-21T02:20:32.546Z,0.00
2018-02-21T02:21:32.523Z,0.00
2018-02-21T02:22:32.479Z,0.00
2018-02-21T02:23:32.447Z,0.00
2018-02-21T02:24:32.406Z,0.00
2018-02-21T02:25:32.403Z,0.00
2018-02-21T02:26:32.342Z,0.00
2018-02-21T02:27:32.319Z,0.00
2018-02-21T02:28:32.286Z,0.00
2018-02-21T02:29:32.293Z,0.00
2018-02-21T02:30:32.209Z,0.00
2018-02-21T02:31:32.181Z,0.00
2018-02-21T02:32:32.146Z,0.00
2018-02-21T02:33:32.148Z,0.00
2018-02-21T02:34:32.082Z,0.00
2018-02-21T02:35:32.078Z,0.00
2018-02-21T02:36:32.006Z,0.00
2018-02-21T02:37:31.979Z,0.00
2018-02-21T02:38:31.938Z,0.00
2018-02-21T02:39:31.943Z,0.00
2018-02-21T02:40:31.880Z,0.00
2018-02-21T02:41:31.842Z,0.00
2018-02-21T02:42:31.806Z,0.00
2018-02-21T02:43:31.769Z,0.00
2018-02-21T02:44:31.735Z,0.00
2018-02-21T02:45:31.731Z,0.00
2018-02-21T02:46:31.670Z,0.00
2018-02-21T02:47:31.635Z,0.00
2018-02-21T02:48:31.606Z,0.00
2018-02-21T02:49:31.599Z,0.00
2018-02-21T02:50:31.535Z,0.00
2018-02-21T02:51:31.506Z,0.00
2018-02-21T02:52:31.474Z,0.00
2018-02-21T02:53:31.460Z,0.00
2018-02-21T02:54:31.401Z,0.00
2018-02-21T02:55:31.371Z,0.00
2018-02-21T02:56:31.338Z,0.00
2018-02-21T02:57:31.305Z,0.00
2018-02-21T02:58:31.296Z,0.00
2018-02-21T02:59:31.234Z,0.00
2018-02-21T03:00:31.197Z,0.00
2018-02-21T03:01:31.173Z,0.00
2018-02-21T03:02:31.144Z,0.00
2018-02-21T03:03:31.122Z,0.00
2018-02-21T03:04:31.062Z,0.00
2018-02-21T03:05:31.033Z,0.00
2018-02-21T03:06:31.006Z,0.00
2018-02-21T03:07:30.987Z,0.00
2018-02-21T03:08:30.955Z,0.00
2018-02-21T03:09:30.895Z,0.00
2018-02-21T03:10:30.865Z,0.00
2018-02-21T03:11:30.824Z,0.00
2018-02-21T03:12:30.795Z,0.00
2018-02-21T03:13:30.784Z,0.00
2018-02-21T03:14:30.724Z,0.00
2018-02-21T03:15:30.694Z,0.00
2018-02-21T03:16:30.664Z,0.00
2018-02-21T03:17:30.626Z,0.00
2018-02-21T03:18:30.620Z,0.00
2018-02-21T03:19:30.568Z,0.00
2018-02-21T03:20:30.525Z,0.00
2018-02-21T03:21:30.494Z,0.00
2018-02-21T03:22:30.457Z,0.00
2018-02-21T03:23:30.445Z,0.00
2018-02-21T03:24:30.386Z,0.00
2018-02-21T03:25:30.353Z,0.00
2018-02-21T03:26:30.329Z,0.00
2018-02-21T03:27:30.301Z,0.00
2018-02-21T03:28:30.291Z,0.00
2018-02-21T03:29:30.231Z,0.00
2018-02-21T03:30:30.196Z,0.00
2018-02-21T03:31:30.154Z,0.00
2018-02-21T03:32:30.130Z,0.00
2018-02-21T03:33:30.116Z,0.00
2018-02-21T03:34:30.058Z,0.00
2018-02-21T03:35:30.016Z,0.00
2018-02-21T03:36:29.981Z,0.00
2018-02-21T03:37:29.949Z,0.00
2018-02-21T03:38:29.944Z,0.00
2018-02-21T03:39:29.877Z,0.00
2018-02-21T03:40:29.843Z,0.00
2018-02-21T03:41:29.830Z,0.00
2018-02-21T03:42:29.778Z,0.00
2018-02-21T03:43:29.769Z,0.00
2018-02-21T03:44:29.708Z,0.00
2018-02-21T03:45:29.679Z,0.00
2018-02-21T03:46:29.648Z,0.00
2018-02-21T03:47:29.632Z,0.00
2018-02-21T03:48:29.574Z,0.00
2018-02-21T03:49:29.546Z,0.00
2018-02-21T03:50:29.508Z,0.00
2018-02-21T03:51:29.477Z,0.00
2018-02-21T03:52:29.462Z,0.00
2018-02-21T03:53:29.422Z,0.00
2018-02-21T03:54:29.371Z,0.00
2018-02-21T03:55:29.369Z,0.00
2018-02-21T03:56:29.307Z,0.00
2018-02-21T03:57:29.274Z,0.00
2018-02-21T03:58:29.235Z,0.00
2018-02-21T03:59:29.197Z,0.00
2018-02-21T04:00:29.202Z,0.00
2018-02-21T04:01:29.139Z,0.00
2018-02-21T04:02:29.098Z,0.00
2018-02-21T04:03:29.067Z,0.00
2018-02-21T04:04:29.030Z,0.00
2018-02-21T04:05:28.997Z,0.00
2018-02-21T04:06:29.004Z,0.00
2018-02-21T04:07:28.930Z,0.00
2018-02-21T04:08:28.894Z,0.00
2018-02-21T04:09:28.862Z,0.00
2018-02-21T04:10:28.839Z,0.00
2018-02-21T04:11:28.791Z,0.00
2018-02-21T04:12:28.798Z,0.00
2018-02-21T04:13:28.723Z,0.00
2018-02-21T04:14:28.694Z,0.00
2018-02-21T04:15:28.654Z,0.00
2018-02-21T04:16:28.621Z,0.00
2018-02-21T04:17:28.586Z,0.00
2018-02-21T04:18:28.581Z,0.00
2018-02-21T04:19:28.520Z,0.00
2018-02-21T04:20:28.487Z,0.00
2018-02-21T04:21:28.452Z,0.00
2018-02-21T04:22:28.423Z,0.00
2018-02-21T04:23:28.423Z,0.00
2018-02-21T04:24:28.356Z,0.00
2018-02-21T04:25:28.315Z,0.00
2018-02-21T04:26:28.332Z,0.00
2018-02-21T04:27:28.275Z,0.00
2018-02-21T04:28:28.240Z,0.00
2018-02-21T04:29:28.241Z,0.00
2018-02-21T04:30:28.172Z,0.00
2018-02-21T04:31:28.136Z,0.00
2018-02-21T04:32:28.105Z,0.00
2018-02-21T04:33:28.073Z,0.00
2018-02-21T04:34:28.039Z,0.00
2018-02-21T04:35:28.027Z,0.00
2018-02-21T04:36:28.043Z,0.00
2018-02-21T04:37:27.930Z,0.00
2018-02-21T04:38:27.905Z,0.00
2018-02-21T04:39:27.864Z,0.00
2018-02-21T04:40:27.873Z,0.00
2018-02-21T04:41:27.805Z,0.00
2018-02-21T04:42:27.760Z,0.00
2018-02-21T04:43:27.727Z,0.00
2018-02-21T04:44:27.703Z,0.00
2018-02-21T04:45:27.660Z,0.00
2018-02-21T04:46:27.665Z,0.00
2018-02-21T04:47:27.592Z,0.00
2018-02-21T04:48:27.571Z,0.00
2018-02-21T04:49:27.529Z,0.00
2018-02-21T04:50:27.500Z,0.00
2018-02-21T04:51:27.452Z,0.00
2018-02-21T04:52:27.449Z,0.00
2018-02-21T04:53:27.386Z,0.00
2018-02-21T04:54:27.362Z,0.00
2018-02-21T04:55:27.351Z,0.00
2018-02-21T04:56:27.287Z,0.00
2018-02-21T04:57:27.278Z,0.00
2018-02-21T04:58:27.246Z,0.00
2018-02-21T04:59:27.180Z,0.00
2018-02-21T05:00:27.144Z,0.00
2018-02-21T05:01:27.116Z,0.00
2018-02-21T05:02:27.102Z,0.00
2018-02-21T05:03:27.039Z,0.00
2018-02-21T05:04:27.010Z,0.00
2018-02-21T05:05:26.979Z,0.00
2018-02-21T05:06:26.945Z,0.00
2018-02-21T05:07:26.927Z,0.00
2018-02-21T05:08:26.877Z,0.00
2018-02-21T05:09:26.844Z,0.00
2018-02-21T05:10:26.813Z,0.00
2018-02-21T05:11:26.768Z,0.00
2018-02-21T05:12:26.758Z,0.00
2018-02-21T05:13:26.707Z,0.00
2018-02-21T05:14:26.672Z,0.00
2018-02-21T05:15:26.636Z,0.00
2018-02-21T05:16:26.595Z,0.00
2018-02-21T05:17:26.589Z,0.00
2018-02-21T05:18:26.528Z,0.00
2018-02-21T05:19:26.496Z,0.00
2018-02-21T05:20:26.465Z,0.00
2018-02-21T05:21:26.433Z,0.00
2018-02-21T05:22:26.433Z,0.00
2018-02-21T05:23:26.361Z,0.00
2018-02-21T05:24:26.319Z,0.00
2018-02-21T05:25:26.289Z,0.00
2018-02-21T05:26:26.254Z,0.00
2018-02-21T05:27:26.244Z,0.00
2018-02-21T05:28:26.181Z,0.00
2018-02-21T05:29:26.160Z,0.00
2018-02-21T05:30:26.119Z,0.00
2018-02-21T05:31:26.081Z,0.00
2018-02-21T05:32:26.076Z,0.00
2018-02-21T05:33:26.009Z,0.00
2018-02-21T05:34:25.982Z,0.00
2018-02-21T05:35:25.949Z,0.00
2018-02-21T05:36:25.909Z,0.00
2018-02-21T05:37:25.909Z,0.00
2018-02-21T05:38:25.842Z,0.00
2018-02-21T05:39:25.805Z,0.00
2018-02-21T05:40:25.779Z,4.00
2018-02-21T05:41:25.742Z,4.00
2018-02-21T05:42:25.737Z,0.00
2018-02-21T05:43:25.684Z,4.00
2018-02-21T05:44:25.634Z,4.00
2018-02-21T05:45:25.613Z,4.00
2018-02-21T05:46:25.568Z,4.00
2018-02-21T05:47:25.555Z,4.00
2018-02-21T05:48:25.497Z,8.00
2018-02-21T05:49:25.465Z,8.00
2018-02-21T05:50:25.469Z,12.00
2018-02-21T05:51:26.025Z,12.00
2018-02-21T05:52:25.404Z,16.00
2018-02-21T05:53:25.378Z,16.00
2018-02-21T05:54:25.336Z,20.00
2018-02-21T05:55:25.275Z,24.00
2018-02-21T05:56:25.224Z,28.00
2018-02-21T05:57:25.190Z,36.00
2018-02-21T05:58:25.153Z,40.00
2018-02-21T05:59:25.122Z,44.00
2018-02-21T06:00:25.123Z,52.00
2018-02-21T06:01:25.056Z,60.00
2018-02-21T06:02:25.022Z,68.00
2018-02-21T06:03:24.993Z,76.00
2018-02-21T06:04:24.946Z,88.00
2018-02-21T06:05:24.922Z,100.00
2018-02-21T06:06:24.961Z,112.00
2018-02-21T06:07:24.849Z,124.00
2018-02-21T06:08:24.815Z,140.00
2018-02-21T06:09:24.776Z,152.00
2018-02-21T06:10:24.748Z,164.00
2018-02-21T06:11:24.713Z,184.00
2018-02-21T06:12:24.702Z,200.00
2018-02-21T06:13:24.637Z,220.00
2018-02-21T06:14:24.608Z,240.00
2018-02-21T06:15:24.570Z,260.00
2018-02-21T06:16:24.550Z,284.00
2018-02-21T06:17:24.544Z,300.00
2018-02-21T06:18:24.490Z,328.00
2018-02-21T06:19:24.440Z,352.00
2018-02-21T06:20:24.400Z,380.00
2018-02-21T06:21:24.368Z,404.00
2018-02-21T06:22:24.331Z,432.00
2018-02-21T06:23:24.331Z,456.00
2018-02-21T06:24:24.265Z,488.00
2018-02-21T06:25:24.227Z,520.00
2018-02-21T06:26:24.203Z,548.00
2018-02-21T06:27:24.157Z,580.00
2018-02-21T06:28:24.122Z,616.00
2018-02-21T06:29:24.127Z,648.00
2018-02-21T06:30:24.053Z,680.00
2018-02-21T06:31:24.024Z,712.00
2018-02-21T06:32:24.019Z,748.00
2018-02-21T06:33:23.954Z,784.00
2018-02-21T06:34:23.921Z,820.00
2018-02-21T06:35:23.884Z,860.00
2018-02-21T06:36:23.853Z,896.00
2018-02-21T06:37:23.840Z,936.00
2018-02-21T06:38:23.786Z,976.00
2018-02-21T06:39:23.755Z,1016.00
2018-02-21T06:40:23.713Z,1056.00
2018-02-21T06:41:23.684Z,1100.00
2018-02-21T06:42:23.668Z,1140.00
2018-02-21T06:43:23.665Z,1184.00
2018-02-21T06:44:23.585Z,1228.00
2018-02-21T06:45:23.543Z,1264.00
2018-02-21T06:46:23.514Z,1308.00
2018-02-21T06:47:23.502Z,1356.00
2018-02-21T06:48:23.442Z,1400.00
2018-02-21T06:49:23.437Z,1448.00
2018-02-21T06:50:23.383Z,1488.00
2018-02-21T06:51:23.337Z,1528.00
2018-02-21T06:52:23.362Z,1572.00
2018-02-21T06:53:23.348Z,1616.00
2018-02-21T06:54:23.250Z,1664.00
2018-02-21T06:55:23.201Z,1704.00
2018-02-21T06:56:23.903Z,1744.00
2018-02-21T06:57:23.168Z,1788.00
2018-02-21T06:58:23.100Z,1840.00
2018-02-21T06:59:23.068Z,1908.00
2018-02-21T07:00:23.043Z,1972.00
2018-02-21T07:01:23.039Z,2064.00
2018-02-21T07:02:22.962Z,2148.00
2018-02-21T07:03:22.929Z,2224.00
2018-02-21T07:04:22.895Z,2300.00
2018-02-21T07:05:22.863Z,2376.00
2018-02-21T07:06:22.829Z,2452.00
2018-02-21T07:07:22.828Z,2536.00
2018-02-21T07:08:22.767Z,2640.00
2018-02-21T07:09:22.728Z,2744.00
2018-02-21T07:10:22.704Z,2824.00
2018-02-21T07:11:22.752Z,2884.00
2018-02-21T07:12:22.626Z,2972.00
2018-02-21T07:13:22.600Z,3080.00
2018-02-21T07:14:22.559Z,3196.00
2018-02-21T07:15:22.532Z,3320.00
2018-02-21T07:16:22.489Z,3416.00
2018-02-21T07:17:22.490Z,3468.00
2018-02-21T07:18:22.433Z,3492.00
2018-02-21T07:19:22.389Z,3512.00
2018-02-21T07:20:22.551Z,3604.00
2018-02-21T07:21:22.370Z,3744.00
2018-02-21T07:22:22.288Z,3852.00
2018-02-21T07:23:22.259Z,3920.00
2018-02-21T07:24:22.253Z,3980.00
2018-02-21T07:25:22.192Z,3968.00
2018-02-21T07:26:22.158Z,3948.00
2018-02-21T07:27:22.170Z,3960.00
2018-02-21T07:28:22.100Z,4016.00
2018-02-21T07:29:22.068Z,4104.00
2018-02-21T07:30:22.037Z,4196.00
2018-02-21T07:31:22.007Z,4280.00
2018-02-21T07:32:23.072Z,4376.00
2018-02-21T07:33:22.075Z,4480.00
2018-02-21T07:34:21.978Z,4564.00
2018-02-21T07:35:21.871Z,4612.00
2018-02-21T07:36:21.964Z,4672.00
2018-02-21T07:37:21.846Z,4760.00
2018-02-21T07:38:21.875Z,4844.00
2018-02-21T07:39:23.493Z,4920.00
2018-02-21T07:40:22.911Z,5012.00
2018-02-21T07:41:21.793Z,5072.00
2018-02-21T07:42:21.676Z,5112.00
2018-02-21T07:43:22.473Z,5088.00
2018-02-21T07:44:22.531Z,5028.00
2018-02-21T07:45:21.695Z,4900.00
2018-02-21T07:46:21.518Z,5000.00
2018-02-21T07:47:21.487Z,4920.00
2018-02-21T07:48:21.905Z,4792.00
2018-02-21T07:49:21.413Z,4632.00
2018-02-21T07:50:21.486Z,4432.00
2018-02-21T07:51:21.922Z,4436.00
2018-02-21T07:52:21.437Z,4572.00
2018-02-21T07:53:21.276Z,4540.00
2018-02-21T07:54:21.639Z,4672.00
2018-02-21T07:55:21.251Z,4792.00
2018-02-21T07:56:21.911Z,4884.00
2018-02-21T07:57:21.212Z,5024.00
2018-02-21T07:58:21.126Z,5116.00
2018-02-21T07:59:21.332Z,5296.00
2018-02-21T08:00:23.071Z,5740.00
2018-02-21T08:01:21.115Z,5848.00
2018-02-21T08:02:22.116Z,6068.00
2018-02-21T08:03:22.602Z,6100.00
2018-02-21T08:04:21.173Z,6200.00
2018-02-21T08:05:21.298Z,6436.00
2018-02-21T08:06:21.305Z,6836.00
2018-02-21T08:07:21.407Z,6804.00
2018-02-21T08:08:21.061Z,7088.00
2018-02-21T08:09:21.405Z,7476.00
2018-02-21T08:10:22.229Z,7792.00
2018-02-21T08:11:21.759Z,10188.00
2018-02-21T08:12:21.001Z,13504.00
2018-02-21T08:13:22.600Z,13032.00
2018-02-21T08:14:21.596Z,12160.00
2018-02-21T08:15:20.906Z,11956.00
2018-02-21T08:16:20.845Z,11692.00
2018-02-21T08:17:21.574Z,12156.00
2018-02-21T08:18:21.612Z,13928.00
2018-02-21T08:19:35.297Z,15648.00
2018-02-21T08:20:21.720Z,15552.00
2018-02-21T08:21:21.578Z,14592.00
2018-02-21T08:22:20.805Z,13632.00
2018-02-21T08:23:20.801Z,16064.00
2018-02-21T08:24:20.691Z,17344.00
2018-02-21T08:25:20.689Z,17632.00
2018-02-21T08:26:22.107Z,17728.00
2018-02-21T08:27:20.570Z,18752.00
2018-02-21T08:28:21.293Z,20064.00
2018-02-21T08:29:21.119Z,20288.00
2018-02-21T08:30:21.149Z,20960.00
2018-02-21T08:31:21.425Z,22144.00
2018-02-21T08:32:20.431Z,22880.00
2018-02-21T08:33:20.576Z,22496.00
2018-02-21T08:34:20.349Z,21568.00
2018-02-21T08:35:21.139Z,22112.00
2018-02-21T08:36:21.147Z,22176.00
2018-02-21T08:37:20.281Z,23520.00
2018-02-21T08:38:20.302Z,24736.00
2018-02-21T08:39:21.641Z,25344.00
2018-02-21T08:40:21.200Z,25760.00
2018-02-21T08:41:21.135Z,26304.00
2018-02-21T08:42:20.099Z,26432.00
2018-02-21T08:43:20.356Z,27456.00
2018-02-21T08:44:21.100Z,28000.00
2018-02-21T08:45:20.225Z,27360.00
2018-02-21T08:46:20.141Z,26400.00
2018-02-21T08:47:20.058Z,26304.00
2018-02-21T08:48:20.178Z,27456.00
2018-02-21T08:49:21.941Z,28320.00
2018-02-21T08:50:21.126Z,29312.00
2018-02-21T08:51:19.917Z,29248.00
2018-02-21T08:52:19.899Z,28800.00
2018-02-21T08:53:20.058Z,29632.00
2018-02-21T08:54:19.995Z,30112.00
2018-02-21T08:55:19.894Z,30272.00
2018-02-21T08:56:19.891Z,31040.00
2018-02-21T08:57:20.596Z,31904.00
2018-02-21T08:58:20.306Z,33312.00
2018-02-21T08:59:19.859Z,34592.00
2018-02-21T09:00:19.763Z,34688.00
2018-02-21T09:01:19.860Z,32896.00
2018-02-21T09:02:19.780Z,31776.00
2018-02-21T09:03:19.905Z,32288.00
2018-02-21T09:04:20.620Z,32544.00
2018-02-21T09:05:19.656Z,31744.00
2018-02-21T09:06:19.653Z,31040.00
2018-02-21T09:07:19.665Z,30208.00
2018-02-21T09:08:19.817Z,30720.00
2018-02-21T09:09:19.679Z,28480.00
2018-02-21T09:10:19.591Z,27648.00
2018-02-21T09:11:19.590Z,27040.00
2018-02-21T09:12:19.598Z,27232.00
2018-02-21T09:13:19.869Z,29120.00
2018-02-21T09:14:19.519Z,30336.00
2018-02-21T09:15:20.139Z,29888.00
2018-02-21T09:16:19.542Z,30432.00
2018-02-21T09:17:19.486Z,31584.00
2018-02-21T09:18:19.665Z,33568.00
2018-02-21T09:19:19.444Z,35296.00
2018-02-21T09:20:19.391Z,36416.00
2018-02-21T09:21:20.282Z,37216.00
2018-02-21T09:22:20.628Z,34432.00
2018-02-21T09:23:19.605Z,32672.00
2018-02-21T09:24:19.379Z,34464.00
2018-02-21T09:25:19.344Z,36032.00
2018-02-21T09:26:19.382Z,28448.00
2018-02-21T09:27:19.329Z,27168.00
2018-02-21T09:28:19.607Z,28096.00
2018-02-21T09:29:19.294Z,29216.00
2018-02-21T09:30:20.245Z,28416.00
2018-02-21T09:31:20.645Z,27808.00
2018-02-21T09:32:20.159Z,26656.00
2018-02-21T09:33:20.639Z,27488.00
2018-02-21T09:34:19.424Z,27552.00
2018-02-21T09:35:19.205Z,25504.00
2018-02-21T09:36:19.267Z,23872.00
2018-02-21T09:37:20.630Z,23680.00
2018-02-21T09:38:20.160Z,25344.00
2018-02-21T09:39:19.110Z,27360.00
2018-02-21T09:40:19.340Z,28672.00
2018-02-21T09:41:19.660Z,31104.00
2018-02-21T09:42:19.227Z,34912.00
2018-02-21T09:43:19.186Z,34944.00
2018-02-21T09:44:19.590Z,32992.00
2018-02-21T09:45:19.255Z,31584.00
2018-02-21T09:46:19.042Z,32672.00
2018-02-21T09:47:19.031Z,34400.00
2018-02-21T09:48:19.029Z,31680.00
2018-02-21T09:49:19.819Z,29760.00
2018-02-21T09:50:18.963Z,26976.00
2018-02-21T09:51:20.243Z,32352.00
2018-02-21T09:52:18.725Z,35776.00
2018-02-21T09:53:20.697Z,32448.00
2018-02-21T09:54:20.711Z,29248.00
2018-02-21T09:55:19.427Z,27840.00
2018-02-21T09:56:19.639Z,26848.00
2018-02-21T09:57:18.775Z,24576.00
2018-02-21T09:58:18.977Z,25280.00
2018-02-21T09:59:20.636Z,28096.00
2018-02-21T10:00:18.768Z,28448.00
2018-02-21T10:01:18.661Z,28160.00
2018-02-21T10:02:18.688Z,26656.00
2018-02-21T10:03:18.772Z,26624.00
2018-02-21T10:04:18.687Z,27296.00
2018-02-21T10:05:18.679Z,25120.00
2018-02-21T10:06:18.691Z,24768.00
2018-02-21T10:07:18.639Z,25888.00
2018-02-21T10:08:18.786Z,28640.00
2018-02-21T10:09:18.305Z,27904.00
2018-02-21T10:10:18.465Z,30592.00
2018-02-21T10:11:18.260Z,30880.00
2018-02-21T10:12:18.276Z,30176.00
2018-02-21T10:13:18.230Z,30432.00
2018-02-21T10:14:18.201Z,36576.00
2018-02-21T10:15:18.182Z,37024.00
2018-02-21T10:16:18.163Z,37728.00
2018-02-21T10:17:18.158Z,30016.00
2018-02-21T10:18:18.166Z,32416.00
2018-02-21T10:19:18.113Z,35136.00
2018-02-21T10:20:18.094Z,33984.00
2018-02-21T10:21:18.084Z,31872.00
2018-02-21T10:22:18.346Z,28896.00
2018-02-21T10:23:18.305Z,28704.00
2018-02-21T10:24:18.476Z,28224.00
2018-02-21T10:25:18.287Z,27520.00
2018-02-21T10:26:18.287Z,30464.00
2018-02-21T10:27:18.331Z,31424.00
2018-02-21T10:28:18.310Z,30208.00
2018-02-21T10:29:18.413Z,30720.00
2018-02-21T10:30:18.210Z,32928.00
2018-02-21T10:31:18.822Z,39552.00
2018-02-21T10:32:18.162Z,41152.00
2018-02-21T10:33:19.787Z,44576.00
2018-02-21T10:34:18.071Z,47136.00
2018-02-21T10:35:18.420Z,41088.00
2018-02-21T10:36:19.738Z,35040.00
2018-02-21T10:37:19.193Z,31840.00
2018-02-21T10:38:19.232Z,30752.00
2018-02-21T10:39:18.212Z,29248.00
2018-02-21T10:40:19.150Z,28320.00
2018-02-21T10:41:18.199Z,26880.00
2018-02-21T10:42:18.102Z,26336.00
2018-02-21T10:43:17.909Z,26560.00
2018-02-21T10:44:17.941Z,27360.00
2018-02-21T10:45:18.659Z,24736.00
2018-02-21T10:46:17.873Z,26816.00
2018-02-21T10:47:18.940Z,27776.00
2018-02-21T10:48:18.735Z,27456.00
2018-02-21T10:49:17.954Z,27168.00
2018-02-21T10:50:17.870Z,26912.00
2018-02-21T10:51:19.247Z,24160.00
2018-02-21T10:52:17.791Z,23744.00
2018-02-21T10:53:18.013Z,23712.00
2018-02-21T10:54:17.900Z,22144.00
2018-02-21T10:55:18.670Z,22368.00
2018-02-21T10:56:17.760Z,21120.00
2018-02-21T10:57:17.829Z,20576.00
2018-02-21T10:58:17.727Z,21248.00
2018-02-21T10:59:17.871Z,20768.00
2018-02-21T11:00:17.750Z,19808.00
2018-02-21T11:01:17.647Z,19776.00
2018-02-21T11:02:17.576Z,18240.00
2018-02-21T11:03:18.190Z,19328.00
2018-02-21T11:04:18.658Z,21344.00
2018-02-21T11:05:17.622Z,23616.00
2018-02-21T11:06:18.304Z,23168.00
2018-02-21T11:07:17.657Z,23328.00
2018-02-21T11:08:17.489Z,23520.00
2018-02-21T11:09:19.162Z,22272.00
2018-02-21T11:10:18.257Z,24512.00
2018-02-21T11:11:17.562Z,27008.00
2018-02-21T11:12:18.640Z,31104.00
2018-02-21T11:13:17.494Z,27616.00
2018-02-21T11:14:17.951Z,28480.00
2018-02-21T11:15:17.505Z,30848.00
2018-02-21T11:16:18.178Z,30176.00
2018-02-21T11:17:18.295Z,29664.00
2018-02-21T11:18:17.397Z,30560.00
2018-02-21T11:19:19.298Z,32288.00
2018-02-21T11:20:17.364Z,31776.00
2018-02-21T11:21:17.555Z,31520.00
2018-02-21T11:22:17.211Z,32032.00
2018-02-21T11:23:17.198Z,32864.00
2018-02-21T11:24:18.175Z,36736.00
2018-02-21T11:25:18.237Z,37952.00
2018-02-21T11:26:17.952Z,37600.00
2018-02-21T11:27:17.372Z,42912.00
2018-02-21T11:28:17.451Z,40352.00
2018-02-21T11:29:17.215Z,38976.00
2018-02-21T11:30:17.065Z,40640.00
2018-02-21T11:31:17.106Z,39520.00
2018-02-21T11:32:17.563Z,40512.00
2018-02-21T11:33:17.017Z,38016.00
2018-02-21T11:34:17.852Z,14396.00
2018-02-21T11:35:17.026Z,20256.00
2018-02-21T11:36:16.913Z,15232.00
2018-02-21T11:37:17.201Z,14020.00
2018-02-21T11:38:18.135Z,13432.00
2018-02-21T11:39:17.460Z,12164.00
2018-02-21T11:40:16.885Z,12176.00
2018-02-21T11:41:17.668Z,12112.00
2018-02-21T11:42:16.997Z,12608.00
2018-02-21T11:43:17.743Z,14956.00
2018-02-21T11:44:16.853Z,44576.00
2018-02-21T11:45:17.654Z,24192.00
2018-02-21T11:46:18.236Z,22848.00
2018-02-21T11:47:18.734Z,46368.00
2018-02-21T11:48:17.468Z,45984.00
2018-02-21T11:49:16.699Z,24640.00
2018-02-21T11:50:16.673Z,14100.00
2018-02-21T11:51:18.958Z,15240.00
2018-02-21T11:52:16.763Z,41152.00
2018-02-21T11:53:16.678Z,48288.00
2018-02-21T11:54:16.570Z,46880.00
2018-02-21T11:55:16.532Z,41312.00
2018-02-21T11:56:17.122Z,23008.00
2018-02-21T11:57:16.703Z,15092.00
2018-02-21T11:58:17.633Z,13180.00
2018-02-21T11:59:17.129Z,11668.00
2018-02-21T12:00:16.484Z,10808.00
2018-02-21T12:01:17.119Z,18080.00
2018-02-21T12:02:17.209Z,10440.00
2018-02-21T12:03:16.399Z,10244.00
2018-02-21T12:04:16.960Z,10780.00
2018-02-21T12:05:16.353Z,11708.00
2018-02-21T12:06:16.397Z,11984.00
2018-02-21T12:07:16.472Z,11860.00
2018-02-21T12:08:17.722Z,12984.00
2018-02-21T12:09:16.216Z,12600.00
2018-02-21T12:10:17.683Z,12156.00
2018-02-21T12:11:16.162Z,12188.00
2018-02-21T12:12:16.412Z,12840.00
2018-02-21T12:13:15.948Z,13888.00
2018-02-21T12:14:15.935Z,15452.00
2018-02-21T12:15:17.176Z,13392.00
2018-02-21T12:16:16.020Z,12884.00
2018-02-21T12:17:15.995Z,12296.00
2018-02-21T12:18:15.853Z,12400.00
2018-02-21T12:19:15.796Z,12984.00
2018-02-21T12:20:16.623Z,13924.00
2018-02-21T12:21:18.107Z,16236.00
2018-02-21T12:22:15.862Z,16896.00
2018-02-21T12:23:17.034Z,18624.00
2018-02-21T12:24:15.761Z,20288.00
2018-02-21T12:25:15.656Z,52192.00
2018-02-21T12:26:15.733Z,42336.00
2018-02-21T12:27:15.640Z,39456.00
2018-02-21T12:28:15.693Z,55680.00
2018-02-21T12:29:15.576Z,26592.00
2018-02-21T12:30:15.597Z,31584.00
2018-02-21T12:31:15.525Z,23680.00